Time;durP1;ratioP1;P1;durP2;ratioP2;P2;SDS_P1;SDS_P2;PMS_P1;PMS_P2;Temp;Humidity;BMP_temperature;BMP_pressure;BME280_temperature;BME280_humidity;BME280_pressure;Samples;Min_cycle;Max_cycle;Signal;HPM_P1;HPM_P2
2024/02/24 00:01:53;;;;;;;6.20;2.45;;;;;;;;;;5047439;28;20052;-68
2024/02/24 00:04:20;;;;;;;7.13;2.90;;;;;;;;;;5055772;27;20060;-72
2024/02/24 00:06:47;;;;;;;8.60;4.35;;;;;;;;;;5076533;28;20075;-71
2024/02/24 00:09:16;;;;;;;6.50;2.92;;;;;;;;;;5073975;28;20075;-69
2024/02/24 00:11:43;;;;;;;6.30;3.08;;;;;;;;;;5070538;28;20113;-70
2024/02/24 00:14:10;;;;;;;6.53;3.47;;;;;;;;;;5054639;28;20062;-66
2024/02/24 00:16:38;;;;;;;7.93;3.35;;;;;;;;;;5059224;28;20087;-73
2024/02/24 00:19:05;;;;;;;4.55;2.13;;;;;;;;;;5060269;28;20052;-75
2024/02/24 00:21:32;;;;;;;6.03;2.50;;;;;;;;;;5058469;28;20059;-69
2024/02/24 00:23:59;;;;;;;4.47;2.08;;;;;;;;;;5047382;28;20275;-70
2024/02/24 00:26:28;;;;;;;4.13;2.05;;;;;;;;;;5056710;28;20100;-69
2024/02/24 00:28:55;;;;;;;5.70;2.70;;;;;;;;;;5061841;28;20554;-71
2024/02/24 00:31:22;;;;;;;7.45;3.40;;;;;;;;;;5062364;28;20059;-70
2024/02/24 00:33:49;;;;;;;6.90;3.17;;;;;;;;;;5052040;28;20127;-72
2024/02/24 00:36:16;;;;;;;8.98;3.75;;;;;;;;;;5057751;28;20071;-71
2024/02/24 00:38:42;;;;;;;10.48;4.53;;;;;;;;;;5056793;28;20155;-73
2024/02/24 00:41:09;;;;;;;10.98;4.85;;;;;;;;;;5059660;28;20040;-68
2024/02/24 00:43:43;;;;;;;11.68;4.40;;;;;;;;;;5059346;28;20673;-69
2024/02/24 00:46:10;;;;;;;8.73;4.22;;;;;;;;;;5055645;28;20152;-71
2024/02/24 00:48:37;;;;;;;9.07;3.20;;;;;;;;;;5058267;28;20052;-69
2024/02/24 00:51:04;;;;;;;7.38;3.33;;;;;;;;;;5057938;28;20062;-73
2024/02/24 00:53:31;;;;;;;5.50;2.30;;;;;;;;;;5057321;28;20044;-68
2024/02/24 00:55:58;;;;;;;3.53;1.80;;;;;;;;;;5052846;28;20551;-69
2024/02/24 00:58:25;;;;;;;2.90;1.38;;;;;;;;;;5057972;28;20079;-65
2024/02/24 01:00:54;;;;;;;2.92;1.40;;;;;;;;;;5056794;28;20064;-72
2024/02/24 01:03:21;;;;;;;4.07;1.20;;;;;;;;;;5051506;28;20075;-67
2024/02/24 01:05:49;;;;;;;5.25;1.10;;;;;;;;;;5074020;28;20052;-72
2024/02/24 01:08:16;;;;;;;3.03;1.30;;;;;;;;;;5049549;28;20048;-66
2024/02/24 01:10:43;;;;;;;3.25;1.27;;;;;;;;;;5052802;28;20131;-66
2024/02/24 01:13:10;;;;;;;3.28;1.33;;;;;;;;;;5053397;28;20056;-69
2024/02/24 01:15:39;;;;;;;2.53;1.20;;;;;;;;;;5047488;28;20091;-72
2024/02/24 01:18:08;;;;;;;2.33;1.13;;;;;;;;;;5047361;28;20057;-66
2024/02/24 01:20:35;;;;;;;4.25;1.35;;;;;;;;;;5051370;28;20485;-72
2024/02/24 01:23:02;;;;;;;2.95;1.10;;;;;;;;;;5050225;28;20044;-76
2024/02/24 01:25:29;;;;;;;4.72;1.48;;;;;;;;;;5041984;28;20056;-71
2024/02/24 01:27:56;;;;;;;2.70;1.20;;;;;;;;;;5044967;28;20044;-70
2024/02/24 01:30:24;;;;;;;2.70;1.15;;;;;;;;;;5049128;28;20080;-69
2024/02/24 01:32:51;;;;;;;2.40;1.23;;;;;;;;;;5049421;28;20071;-68
2024/02/24 01:35:19;;;;;;;6.53;1.38;;;;;;;;;;5042749;28;20066;-72
2024/02/24 01:37:49;;;;;;;5.05;1.98;;;;;;;;;;5047505;28;20132;-73
2024/02/24 01:40:16;;;;;;;11.77;5.10;;;;;;;;;;5049467;28;20056;-73
2024/02/24 01:42:46;;;;;;;5.40;2.35;;;;;;;;;;5052879;28;20058;-72
2024/02/24 01:45:14;;;;;;;7.65;2.10;;;;;;;;;;5022256;28;20061;-67
2024/02/24 01:47:42;;;;;;;4.53;1.20;;;;;;;;;;5044634;28;20168;-68
2024/02/24 01:50:11;;;;;;;1.88;1.08;;;;;;;;;;5049155;28;20052;-69
2024/02/24 01:52:41;;;;;;;2.15;1.10;;;;;;;;;;5052529;28;20052;-71
2024/02/24 01:55:09;;;;;;;3.40;1.20;;;;;;;;;;5044633;28;20254;-68
2024/02/24 01:57:44;;;;;;;3.85;1.20;;;;;;;;;;5055033;28;20776;-69
2024/02/24 02:00:12;;;;;;;1.88;1.10;;;;;;;;;;5051059;28;20143;-71
2024/02/24 02:02:40;;;;;;;2.97;1.05;;;;;;;;;;5049464;28;20052;-71
2024/02/24 02:05:08;;;;;;;2.45;1.05;;;;;;;;;;5044749;28;20259;-72
2024/02/24 02:07:37;;;;;;;2.95;1.23;;;;;;;;;;5051887;28;20072;-68
2024/02/24 02:10:09;;;;;;;2.78;1.25;;;;;;;;;;5049477;28;20082;-69
2024/02/24 02:12:36;;;;;;;2.28;1.10;;;;;;;;;;5051971;28;20241;-75
2024/02/24 02:15:04;;;;;;;2.90;0.93;;;;;;;;;;5045005;28;21014;-74
2024/02/24 02:17:32;;;;;;;2.90;1.20;;;;;;;;;;5086368;27;20063;-71
2024/02/24 02:20:01;;;;;;;3.38;1.27;;;;;;;;;;5044066;28;20048;-70
2024/02/24 02:22:30;;;;;;;2.40;1.38;;;;;;;;;;5051214;28;20052;-73
2024/02/24 02:24:57;;;;;;;1.58;1.02;;;;;;;;;;5049337;28;20131;-71
2024/02/24 02:27:24;;;;;;;3.80;1.30;;;;;;;;;;5050080;28;20052;-69
2024/02/24 02:29:51;;;;;;;3.10;1.48;;;;;;;;;;5046721;28;20063;-75
2024/02/24 02:32:18;;;;;;;2.95;1.30;;;;;;;;;;5050717;28;20063;-71
2024/02/24 02:34:45;;;;;;;3.35;1.35;;;;;;;;;;5048460;28;20047;-70
2024/02/24 02:37:12;;;;;;;5.50;1.60;;;;;;;;;;5088127;28;20073;-73
2024/02/24 02:39:46;;;;;;;5.03;2.03;;;;;;;;;;5050001;28;20565;-72
2024/02/24 02:42:13;;;;;;;5.20;2.10;;;;;;;;;;5050871;28;20044;-72
2024/02/24 02:44:41;;;;;;;8.70;3.58;;;;;;;;;;5040263;28;20059;-68
2024/02/24 02:47:07;;;;;;;5.72;2.55;;;;;;;;;;5065006;28;20058;-71
2024/02/24 02:49:34;;;;;;;7.90;3.10;;;;;;;;;;5052097;28;20055;-71
2024/02/24 02:52:02;;;;;;;9.43;3.97;;;;;;;;;;5046083;28;20051;-69
2024/02/24 02:54:29;;;;;;;7.47;3.78;;;;;;;;;;5046042;28;20063;-67
2024/02/24 02:56:58;;;;;;;9.23;4.22;;;;;;;;;;5051250;28;20140;-73
2024/02/24 02:59:24;;;;;;;;;;;;;;;;;;5048112;28;20047;-74
2024/02/24 03:01:52;;;;;;;11.45;4.00;;;;;;;;;;5049176;28;19924;-69
2024/02/24 03:04:20;;;;;;;12.93;4.20;;;;;;;;;;5061409;28;20059;-72
2024/02/24 03:06:47;;;;;;;11.48;3.55;;;;;;;;;;5047046;28;20056;-70
2024/02/24 03:09:14;;;;;;;9.40;3.63;;;;;;;;;;5048961;28;20052;-75
2024/02/24 03:11:42;;;;;;;6.10;2.83;;;;;;;;;;5048832;28;20059;-75
2024/02/24 03:14:11;;;;;;;9.98;3.25;;;;;;;;;;5039099;28;20060;-71
2024/02/24 03:16:39;;;;;;;7.95;3.35;;;;;;;;;;5050229;28;20121;-73
2024/02/24 03:19:06;;;;;;;11.63;4.82;;;;;;;;;;5047538;28;20051;-69
2024/02/24 03:21:33;;;;;;;11.05;4.55;;;;;;;;;;5044669;28;20056;-74
2024/02/24 03:24:01;;;;;;;10.73;4.38;;;;;;;;;;5035811;28;20324;-70
2024/02/24 03:26:28;;;;;;;11.20;4.47;;;;;;;;;;5049268;28;20060;-72
2024/02/24 03:28:55;;;;;;;9.50;4.05;;;;;;;;;;5049618;28;20080;-70
2024/02/24 03:31:24;;;;;;;11.38;4.20;;;;;;;;;;5048936;28;20056;-71
2024/02/24 03:33:54;;;;;;;10.05;4.82;;;;;;;;;;5037840;27;20138;-70
2024/02/24 03:36:21;;;;;;;10.00;4.70;;;;;;;;;;5082109;28;20044;-67
2024/02/24 03:38:47;;;;;;;10.48;4.82;;;;;;;;;;5049873;28;20284;-73
2024/02/24 03:41:14;;;;;;;8.82;3.78;;;;;;;;;;5050303;28;20139;-73
2024/02/24 03:43:45;;;;;;;10.32;4.25;;;;;;;;;;5034772;28;20052;-75
2024/02/24 03:46:12;;;;;;;8.13;3.83;;;;;;;;;;5078623;28;20118;-69
2024/02/24 03:48:41;;;;;;;8.88;3.83;;;;;;;;;;5051530;28;20060;-68
2024/02/24 03:51:07;;;;;;;;;;;;;;;;;;5052923;28;20088;-75
2024/02/24 03:53:35;;;;;;;6.40;3.17;;;;;;;;;;5046600;28;19980;-71
2024/02/24 03:56:02;;;;;;;7.50;3.58;;;;;;;;;;5080323;28;20121;-74
2024/02/24 03:58:29;;;;;;;7.95;3.55;;;;;;;;;;5050456;28;20094;-73
2024/02/24 04:00:56;;;;;;;8.45;3.90;;;;;;;;;;5056093;28;20056;-73
2024/02/24 04:03:23;;;;;;;12.35;4.40;;;;;;;;;;5052364;28;20048;-75
2024/02/24 04:05:52;;;;;;;9.80;4.07;;;;;;;;;;5047278;28;20125;-66
2024/02/24 04:08:18;;;;;;;;;;;;;;;;;;5055739;28;20048;-72
2024/02/24 04:10:46;;;;;;;3.40;1.80;;;;;;;;;;5055750;28;19928;-67
2024/02/24 04:13:13;;;;;;;3.58;1.63;;;;;;;;;;5054930;28;20063;-70
2024/02/24 04:15:48;;;;;;;3.33;1.60;;;;;;;;;;5050012;28;20141;-70
2024/02/24 04:18:15;;;;;;;2.28;1.10;;;;;;;;;;5054586;28;20048;-68
2024/02/24 04:20:44;;;;;;;3.53;1.45;;;;;;;;;;5051635;28;20160;-74
2024/02/24 04:23:13;;;;;;;2.70;1.58;;;;;;;;;;5054938;28;20036;-71
2024/02/24 04:25:42;;;;;;;;;;;;;;;;;;5047401;28;20056;-66
2024/02/24 04:28:12;;;;;;;3.47;1.70;;;;;;;;;;5057380;28;19928;-68
2024/02/24 04:30:39;;;;;;;2.63;1.33;;;;;;;;;;5051555;28;20059;-70
2024/02/24 04:33:06;;;;;;;3.10;1.42;;;;;;;;;;5052285;28;20377;-69
2024/02/24 04:35:34;;;;;;;2.97;1.02;;;;;;;;;;5040589;28;20059;-67
2024/02/24 04:38:05;;;;;;;3.05;1.42;;;;;;;;;;5048324;28;20400;-66
2024/02/24 04:40:35;;;;;;;2.95;1.20;;;;;;;;;;5054156;28;20056;-72
2024/02/24 04:43:01;;;;;;;3.33;1.38;;;;;;;;;;5054684;28;20895;-67
2024/02/24 04:45:28;;;;;;;1.58;1.00;;;;;;;;;;5046674;28;20059;-70
2024/02/24 04:47:55;;;;;;;1.40;1.00;;;;;;;;;;5048213;28;20076;-71
2024/02/24 04:50:22;;;;;;;5.60;0.98;;;;;;;;;;5053525;28;20052;-68
2024/02/24 04:52:49;;;;;;;2.85;1.05;;;;;;;;;;5053223;28;20068;-72
2024/02/24 04:55:16;;;;;;;3.25;1.10;;;;;;;;;;5046625;28;20048;-68
2024/02/24 04:57:47;;;;;;;1.35;0.93;;;;;;;;;;5049486;28;20502;-71
2024/02/24 05:00:14;;;;;;;3.50;1.10;;;;;;;;;;5050549;28;20083;-73
2024/02/24 05:02:42;;;;;;;7.40;1.83;;;;;;;;;;5049273;28;20048;-71
2024/02/24 05:05:12;;;;;;;4.10;1.30;;;;;;;;;;5047152;28;20052;-71
2024/02/24 05:07:40;;;;;;;4.72;2.22;;;;;;;;;;5048971;28;20052;-71
2024/02/24 05:10:08;;;;;;;5.82;2.33;;;;;;;;;;5048179;28;20044;-68
2024/02/24 05:12:36;;;;;;;8.63;3.28;;;;;;;;;;5052254;28;20638;-72
2024/02/24 05:15:10;;;;;;;6.60;2.50;;;;;;;;;;5048423;28;20147;-70
2024/02/24 05:17:38;;;;;;;8.40;3.80;;;;;;;;;;5051718;28;20064;-68
2024/02/24 05:20:07;;;;;;;7.50;3.28;;;;;;;;;;5050088;28;20115;-70
2024/02/24 05:22:36;;;;;;;10.48;3.42;;;;;;;;;;5052677;28;20044;-73
2024/02/24 05:25:04;;;;;;;6.85;3.15;;;;;;;;;;5046174;28;20108;-70
2024/02/24 05:27:32;;;;;;;8.32;3.65;;;;;;;;;;5054150;28;20102;-65
2024/02/24 05:29:59;;;;;;;10.75;4.15;;;;;;;;;;5051526;28;20055;-67
2024/02/24 05:32:27;;;;;;;7.15;3.40;;;;;;;;;;5053046;28;20085;-75
2024/02/24 05:34:54;;;;;;;;;;;;;;;;;;5047684;28;20060;-70
2024/02/24 05:37:21;;;;;;;5.32;2.60;;;;;;;;;;5052599;28;19928;-70
2024/02/24 05:39:49;;;;;;;5.95;2.35;;;;;;;;;;5047251;28;20151;-70
2024/02/24 05:42:16;;;;;;;5.03;1.77;;;;;;;;;;5053147;28;20060;-68
2024/02/24 05:44:45;;;;;;;7.13;2.42;;;;;;;;;;5047423;28;20278;-68
2024/02/24 05:47:12;;;;;;;6.43;2.30;;;;;;;;;;5051078;28;20048;-71
2024/02/24 05:49:43;;;;;;;3.40;1.70;;;;;;;;;;5051293;28;20047;-69
2024/02/24 05:52:10;;;;;;;5.82;2.20;;;;;;;;;;5051014;28;20040;-69
2024/02/24 05:54:40;;;;;;;4.97;2.03;;;;;;;;;;5038384;28;20043;-70
2024/02/24 05:57:08;;;;;;;2.88;1.55;;;;;;;;;;5052700;28;20059;-76
2024/02/24 05:59:35;;;;;;;3.83;1.88;;;;;;;;;;5050391;28;20155;-70
2024/02/24 06:02:03;;;;;;;3.65;1.48;;;;;;;;;;5047234;28;20073;-73
2024/02/24 06:04:30;;;;;;;3.20;1.45;;;;;;;;;;5047122;28;20056;-70
2024/02/24 06:06:59;;;;;;;4.53;1.50;;;;;;;;;;5052112;28;20072;-75
2024/02/24 06:09:26;;;;;;;6.43;1.88;;;;;;;;;;5083417;28;20060;-69
2024/02/24 06:11:53;;;;;;;3.95;1.60;;;;;;;;;;5045532;28;20083;-70
2024/02/24 06:14:20;;;;;;;3.42;1.38;;;;;;;;;;5045184;28;20058;-71
2024/02/24 06:16:47;;;;;;;7.05;1.63;;;;;;;;;;5086554;28;20059;-72
2024/02/24 06:19:14;;;;;;;3.92;1.58;;;;;;;;;;5052427;28;20048;-73
2024/02/24 06:21:43;;;;;;;5.28;2.08;;;;;;;;;;5050839;28;20056;-69
2024/02/24 06:24:11;;;;;;;2.70;1.60;;;;;;;;;;5043111;28;20051;-71
2024/02/24 06:26:38;;;;;;;4.13;2.03;;;;;;;;;;5052145;28;20134;-68
2024/02/24 06:29:05;;;;;;;6.18;2.20;;;;;;;;;;5048942;28;20055;-74
2024/02/24 06:31:32;;;;;;;4.90;2.00;;;;;;;;;;5051796;28;20084;-72
2024/02/24 06:33:59;;;;;;;5.22;2.38;;;;;;;;;;5038640;28;20047;-69
2024/02/24 06:36:26;;;;;;;5.88;2.70;;;;;;;;;;5054227;28;20051;-70
2024/02/24 06:38:53;;;;;;;6.90;3.00;;;;;;;;;;5049687;28;20073;-71
2024/02/24 06:41:23;;;;;;;8.13;3.53;;;;;;;;;;5051930;28;20074;-66
2024/02/24 06:43:51;;;;;;;6.68;3.00;;;;;;;;;;5039613;28;20055;-74
2024/02/24 06:46:18;;;;;;;6.28;2.80;;;;;;;;;;5050153;28;20048;-70
2024/02/24 06:48:45;;;;;;;5.10;2.58;;;;;;;;;;5052253;28;20048;-69
2024/02/24 06:51:12;;;;;;;5.43;2.50;;;;;;;;;;5050767;28;20052;-69
2024/02/24 06:53:40;;;;;;;4.97;1.77;;;;;;;;;;5080954;28;20146;-71
2024/02/24 06:56:09;;;;;;;3.42;1.60;;;;;;;;;;5050388;28;20056;-74
2024/02/24 06:58:38;;;;;;;3.47;1.50;;;;;;;;;;5086773;28;20056;-67
2024/02/24 07:01:05;;;;;;;4.80;1.95;;;;;;;;;;5080787;28;20067;-69
2024/02/24 07:03:33;;;;;;;6.20;1.27;;;;;;;;;;5044475;28;20440;-72
2024/02/24 07:06:01;;;;;;;4.13;1.60;;;;;;;;;;5044761;28;20368;-75
2024/02/24 07:08:28;;;;;;;2.83;1.40;;;;;;;;;;5049057;28;20131;-75
2024/02/24 07:10:58;;;;;;;3.08;1.45;;;;;;;;;;5083556;28;20274;-66
2024/02/24 07:13:25;;;;;;;2.03;1.30;;;;;;;;;;5044977;28;20040;-69
2024/02/24 07:15:54;;;;;;;3.85;1.52;;;;;;;;;;5039303;28;20048;-69
2024/02/24 07:18:21;;;;;;;2.90;1.23;;;;;;;;;;5049790;28;20061;-73
2024/02/24 07:20:50;;;;;;;3.95;1.75;;;;;;;;;;5049146;28;20057;-73
2024/02/24 07:23:17;;;;;;;5.65;1.20;;;;;;;;;;5051190;28;20053;-70
2024/02/24 07:25:47;;;;;;;2.88;1.45;;;;;;;;;;5077927;28;20056;-75
2024/02/24 07:28:17;;;;;;;4.35;1.50;;;;;;;;;;5084317;28;20063;-72
2024/02/24 07:30:44;;;;;;;2.92;1.50;;;;;;;;;;5053073;28;20056;-73
2024/02/24 07:33:13;;;;;;;3.30;1.48;;;;;;;;;;5053229;28;20051;-71
2024/02/24 07:35:46;;;;;;;2.53;1.23;;;;;;;;;;5043601;28;20056;-70
2024/02/24 07:38:14;;;;;;;2.55;1.30;;;;;;;;;;5056295;28;20135;-76
2024/02/24 07:40:41;;;;;;;3.72;1.30;;;;;;;;;;5052794;28;20503;-70
2024/02/24 07:43:09;;;;;;;2.47;1.20;;;;;;;;;;5053245;28;20142;-72
2024/02/24 07:45:38;;;;;;;2.80;1.40;;;;;;;;;;5041979;28;20056;-74
2024/02/24 07:48:07;;;;;;;3.08;1.58;;;;;;;;;;5080075;27;20044;-72
2024/02/24 07:50:36;;;;;;;4.43;1.90;;;;;;;;;;5051299;28;20059;-70
2024/02/24 07:53:04;;;;;;;6.18;1.95;;;;;;;;;;5051368;28;20055;-75
2024/02/24 07:55:31;;;;;;;2.45;1.20;;;;;;;;;;5046774;28;20430;-69
2024/02/24 07:57:59;;;;;;;3.33;1.60;;;;;;;;;;5040496;28;20088;-69
2024/02/24 08:00:26;;;;;;;3.65;1.73;;;;;;;;;;5089778;27;20060;-75
2024/02/24 08:02:53;;;;;;;3.95;1.70;;;;;;;;;;5057533;28;20055;-73
2024/02/24 08:05:21;;;;;;;6.45;2.05;;;;;;;;;;5048785;28;20111;-71
2024/02/24 08:07:49;;;;;;;7.97;2.75;;;;;;;;;;5050061;28;20121;-72
2024/02/24 08:10:17;;;;;;;5.00;2.20;;;;;;;;;;5050528;28;20052;-72
2024/02/24 08:12:47;;;;;;;3.33;1.48;;;;;;;;;;5049451;28;20086;-68
2024/02/24 08:15:15;;;;;;;2.50;1.52;;;;;;;;;;5059157;28;20056;-70
2024/02/24 08:17:49;;;;;;;6.05;1.40;;;;;;;;;;5048876;28;20091;-75
2024/02/24 08:20:19;;;;;;;3.22;1.40;;;;;;;;;;5052386;28;20146;-72
2024/02/24 08:22:47;;;;;;;4.30;1.67;;;;;;;;;;5049619;28;20044;-69
2024/02/24 08:25:16;;;;;;;2.75;1.50;;;;;;;;;;5039448;28;20511;-70
2024/02/24 08:27:45;;;;;;;3.25;1.45;;;;;;;;;;5049953;28;20486;-68
2024/02/24 08:30:18;;;;;;;3.28;1.35;;;;;;;;;;5047340;28;20060;-68
2024/02/24 08:32:46;;;;;;;2.50;1.25;;;;;;;;;;5052581;28;20062;-71
2024/02/24 08:35:13;;;;;;;4.20;1.65;;;;;;;;;;5035623;28;20044;-69
2024/02/24 08:37:41;;;;;;;2.35;1.40;;;;;;;;;;5047793;28;20127;-68
2024/02/24 08:40:10;;;;;;;3.57;1.70;;;;;;;;;;5046791;28;20064;-71
2024/02/24 08:42:39;;;;;;;4.80;1.55;;;;;;;;;;5050860;28;20059;-70
2024/02/24 08:45:07;;;;;;;4.47;1.55;;;;;;;;;;5046389;28;20059;-72
2024/02/24 08:47:34;;;;;;;3.03;1.15;;;;;;;;;;5055412;28;20091;-72
2024/02/24 08:50:01;;;;;;;4.38;1.38;;;;;;;;;;5046897;28;20090;-68
2024/02/24 08:52:28;;;;;;;3.38;1.23;;;;;;;;;;5052743;28;20330;-69
2024/02/24 08:54:55;;;;;;;3.90;1.25;;;;;;;;;;5032183;28;20105;-67
2024/02/24 08:57:22;;;;;;;3.30;1.30;;;;;;;;;;5049942;28;20056;-69
2024/02/24 08:59:51;;;;;;;4.68;1.67;;;;;;;;;;5061198;28;20055;-66
2024/02/24 09:02:19;;;;;;;3.85;1.70;;;;;;;;;;5056935;28;20474;-68
2024/02/24 09:04:46;;;;;;;3.88;1.40;;;;;;;;;;5053589;28;20068;-69
2024/02/24 09:07:13;;;;;;;3.05;1.60;;;;;;;;;;5059965;28;20059;-71
2024/02/24 09:09:40;;;;;;;3.25;1.27;;;;;;;;;;5051754;28;20048;-66
2024/02/24 09:12:10;;;;;;;3.42;1.35;;;;;;;;;;5051600;28;20079;-70
2024/02/24 09:14:38;;;;;;;1.73;1.00;;;;;;;;;;5050106;28;20056;-69
2024/02/24 09:17:06;;;;;;;1.60;0.90;;;;;;;;;;5069017;28;20067;-67
2024/02/24 09:19:33;;;;;;;2.30;1.15;;;;;;;;;;5070270;28;20388;-72
2024/02/24 09:22:00;;;;;;;1.38;0.98;;;;;;;;;;5050540;28;20052;-66
2024/02/24 09:24:29;;;;;;;2.50;1.17;;;;;;;;;;5054097;28;20055;-68
2024/02/24 09:26:56;;;;;;;2.40;1.00;;;;;;;;;;5058996;28;20076;-65
2024/02/24 09:29:23;;;;;;;2.25;1.02;;;;;;;;;;5060941;28;20059;-65
2024/02/24 09:31:50;;;;;;;3.10;1.13;;;;;;;;;;5073284;28;20057;-68
2024/02/24 09:34:18;;;;;;;1.80;0.95;;;;;;;;;;5056364;28;20047;-71
2024/02/24 09:36:45;;;;;;;2.25;1.00;;;;;;;;;;5059652;28;20054;-67
2024/02/24 09:39:14;;;;;;;2.65;1.02;;;;;;;;;;5058190;28;20056;-69
2024/02/24 09:41:41;;;;;;;2.90;1.30;;;;;;;;;;5058487;28;20056;-67
2024/02/24 09:44:09;;;;;;;4.28;1.27;;;;;;;;;;5043158;28;20060;-69
2024/02/24 09:46:38;;;;;;;3.47;1.30;;;;;;;;;;5058064;28;21028;-67
2024/02/24 09:49:05;;;;;;;;;;;;;;;;;;5058494;28;20057;-70
2024/02/24 09:51:34;;;;;;;4.97;2.20;;;;;;;;;;5059984;28;19975;-70
2024/02/24 09:54:02;;;;;;;7.43;2.33;;;;;;;;;;5046699;28;20060;-69
2024/02/24 09:56:31;;;;;;;4.07;1.77;;;;;;;;;;5059833;28;20052;-69
2024/02/24 09:58:58;;;;;;;5.72;1.95;;;;;;;;;;5059971;28;20056;-67
2024/02/24 10:01:25;;;;;;;4.18;1.80;;;;;;;;;;5057930;28;20140;-69
2024/02/24 10:03:52;;;;;;;4.50;1.80;;;;;;;;;;5049315;28;20524;-67
2024/02/24 10:06:20;;;;;;;4.15;1.90;;;;;;;;;;5058069;28;20234;-68
2024/02/24 10:08:49;;;;;;;5.55;2.20;;;;;;;;;;5058515;28;20055;-67
2024/02/24 10:11:16;;;;;;;3.60;1.77;;;;;;;;;;5059402;28;20052;-66
2024/02/24 10:13:44;;;;;;;4.40;2.00;;;;;;;;;;5045571;28;20559;-65
2024/02/24 10:16:11;;;;;;;4.60;1.98;;;;;;;;;;5069406;28;20063;-68
2024/02/24 10:18:40;;;;;;;3.80;1.63;;;;;;;;;;5059796;28;20153;-65
2024/02/24 10:21:07;;;;;;;5.80;1.85;;;;;;;;;;5060074;28;20063;-68
2024/02/24 10:23:34;;;;;;;5.05;1.63;;;;;;;;;;5057564;28;20056;-67
2024/02/24 10:26:04;;;;;;;4.10;1.77;;;;;;;;;;5041901;28;20321;-67
2024/02/24 10:28:32;;;;;;;4.50;1.65;;;;;;;;;;5068841;28;20153;-68
2024/02/24 10:30:59;;;;;;;3.08;1.73;;;;;;;;;;5060199;28;20052;-70
2024/02/24 10:33:29;;;;;;;4.75;1.95;;;;;;;;;;5068727;28;20059;-70
2024/02/24 10:35:57;;;;;;;6.20;2.97;;;;;;;;;;5038263;28;20056;-67
2024/02/24 10:38:26;;;;;;;4.82;2.30;;;;;;;;;;5058966;28;20059;-66
2024/02/24 10:40:54;;;;;;;6.45;2.35;;;;;;;;;;5057618;28;20060;-67
2024/02/24 10:43:26;;;;;;;6.20;2.28;;;;;;;;;;5070710;28;20055;-65
2024/02/24 10:45:52;;;;;;;6.63;2.55;;;;;;;;;;5047276;28;20044;-69
2024/02/24 10:48:22;;;;;;;3.63;1.67;;;;;;;;;;5057842;28;20062;-65
2024/02/24 10:50:50;;;;;;;8.07;3.33;;;;;;;;;;5059616;28;20066;-66
2024/02/24 10:53:22;;;;;;;6.40;3.00;;;;;;;;;;5058600;28;20092;-67
2024/02/24 10:55:51;;;;;;;5.93;2.28;;;;;;;;;;5042598;28;20059;-68
2024/02/24 10:58:20;;;;;;;8.10;2.17;;;;;;;;;;5060334;28;20052;-68
2024/02/24 11:00:50;;;;;;;7.22;2.28;;;;;;;;;;5057014;28;20979;-66
2024/02/24 11:03:20;;;;;;;3.85;1.98;;;;;;;;;;5059755;28;20084;-65
2024/02/24 11:05:48;;;;;;;5.20;2.20;;;;;;;;;;5044446;28;20039;-66
2024/02/24 11:08:34;;;;;;;3.63;1.93;;;;;;;;;;5079662;28;20059;-65
2024/02/24 11:11:04;;;;;;;5.53;2.22;;;;;;;;;;5043442;28;20056;-65
2024/02/24 11:13:31;;;;;;;4.68;1.73;;;;;;;;;;5050631;27;20066;-67
2024/02/24 11:16:00;;;;;;;3.30;1.70;;;;;;;;;;5057853;28;20062;-69
2024/02/24 11:18:55;;;;;;;6.28;2.25;;;;;;;;;;5069021;28;20052;-66
2024/02/24 11:21:42;;;;;;;4.15;1.70;;;;;;;;;;5050840;28;20079;-70
2024/02/24 11:24:18;;;;;;;6.63;2.75;;;;;;;;;;5067995;28;20060;-69
2024/02/24 11:26:45;;;;;;;8.18;2.83;;;;;;;;;;5069090;28;20495;-68
2024/02/24 11:29:17;;;;;;;5.07;2.33;;;;;;;;;;5053375;28;20052;-69
2024/02/24 11:32:19;;;;;;;6.85;2.10;;;;;;;;;;5064111;28;20048;-69
2024/02/24 11:34:46;;;;;;;3.15;1.80;;;;;;;;;;5058597;28;20047;-66
2024/02/24 11:37:18;;;;;;;6.72;2.35;;;;;;;;;;5057824;28;20897;-66
2024/02/24 11:39:47;;;;;;;4.63;1.92;;;;;;;;;;5039797;28;20055;-67
2024/02/24 11:42:14;;;;;;;7.38;2.63;;;;;;;;;;5059202;28;20052;-67
2024/02/24 11:44:46;;;;;;;6.28;1.88;;;;;;;;;;5058631;28;20063;-69
2024/02/24 11:47:20;;;;;;;4.40;1.48;;;;;;;;;;5057718;28;20358;-67
2024/02/24 11:49:55;;;;;;;3.85;1.73;;;;;;;;;;5026284;28;20058;-67
2024/02/24 11:52:22;;;;;;;4.25;1.80;;;;;;;;;;5046861;28;20174;-65
2024/02/24 11:54:48;;;;;;;2.05;1.20;;;;;;;;;;5058519;28;20128;-67
2024/02/24 11:57:20;;;;;;;5.53;1.52;;;;;;;;;;5057531;28;20091;-66
2024/02/24 11:59:50;;;;;;;2.35;1.15;;;;;;;;;;5043169;28;21061;-65
2024/02/24 12:02:19;;;;;;;1.85;1.00;;;;;;;;;;5069074;28;20982;-69
2024/02/24 12:04:47;;;;;;;3.92;1.40;;;;;;;;;;5050885;28;20048;-67
2024/02/24 12:07:15;;;;;;;3.80;1.38;;;;;;;;;;5049934;28;20052;-67
2024/02/24 12:09:45;;;;;;;3.60;1.38;;;;;;;;;;5045299;28;20318;-69
2024/02/24 12:12:12;;;;;;;3.15;1.50;;;;;;;;;;5059878;27;20189;-68
2024/02/24 12:14:39;;;;;;;2.00;1.23;;;;;;;;;;5053956;28;20063;-68
2024/02/24 12:17:06;;;;;;;1.85;1.00;;;;;;;;;;5053021;28;20052;-66
2024/02/24 12:19:37;;;;;;;6.63;1.48;;;;;;;;;;5054683;28;20055;-67
2024/02/24 12:22:09;;;;;;;3.33;1.52;;;;;;;;;;5072961;28;20064;-68
2024/02/24 12:24:37;;;;;;;2.55;1.35;;;;;;;;;;5055336;28;20056;-69
2024/02/24 12:27:07;;;;;;;4.75;1.30;;;;;;;;;;5072927;28;20059;-67
2024/02/24 12:29:34;;;;;;;2.05;1.10;;;;;;;;;;5044203;28;20119;-66
2024/02/24 12:32:01;;;;;;;2.92;1.50;;;;;;;;;;5072809;28;20113;-67
2024/02/24 12:34:28;;;;;;;4.53;1.97;;;;;;;;;;5071840;28;20075;-68
2024/02/24 12:36:57;;;;;;;7.82;2.90;;;;;;;;;;5054028;28;20052;-66
2024/02/24 12:39:25;;;;;;;4.25;1.88;;;;;;;;;;5064216;28;20109;-67
2024/02/24 12:41:53;;;;;;;3.80;1.42;;;;;;;;;;5069019;28;20060;-67
2024/02/24 12:44:20;;;;;;;2.70;1.40;;;;;;;;;;5053510;28;20056;-68
2024/02/24 12:46:47;;;;;;;3.30;1.27;;;;;;;;;;5052764;28;20072;-65
2024/02/24 12:49:14;;;;;;;4.22;1.13;;;;;;;;;;5047075;28;20060;-66
2024/02/24 12:51:41;;;;;;;3.40;1.30;;;;;;;;;;5044350;28;20059;-67
2024/02/24 12:54:11;;;;;;;2.75;1.35;;;;;;;;;;5052487;28;20107;-66
2024/02/24 12:56:38;;;;;;;2.85;1.13;;;;;;;;;;5051545;28;20287;-68
2024/02/24 12:59:05;;;;;;;2.80;1.05;;;;;;;;;;5048838;28;20044;-68
2024/02/24 13:01:32;;;;;;;3.40;1.35;;;;;;;;;;5080013;28;20151;-69
2024/02/24 13:03:59;;;;;;;5.38;1.55;;;;;;;;;;5050785;28;20063;-69
2024/02/24 13:06:26;;;;;;;2.95;1.20;;;;;;;;;;5052032;28;20060;-66
2024/02/24 13:08:55;;;;;;;3.20;1.17;;;;;;;;;;5051438;28;20226;-69
2024/02/24 13:11:25;;;;;;;3.72;1.45;;;;;;;;;;5043262;28;20082;-69
2024/02/24 13:13:52;;;;;;;3.88;1.40;;;;;;;;;;5044959;28;20131;-67
2024/02/24 13:16:19;;;;;;;3.45;1.35;;;;;;;;;;5049967;28;20055;-67
2024/02/24 13:18:46;;;;;;;2.13;1.10;;;;;;;;;;5052050;28;20080;-69
2024/02/24 13:21:14;;;;;;;3.95;1.58;;;;;;;;;;5035644;28;20040;-66
2024/02/24 13:23:41;;;;;;;3.80;1.50;;;;;;;;;;5042676;28;20055;-68
2024/02/24 13:26:08;;;;;;;5.28;1.77;;;;;;;;;;5051732;28;20049;-66
2024/02/24 13:28:36;;;;;;;4.88;1.58;;;;;;;;;;5049560;28;20143;-67
2024/02/24 13:31:04;;;;;;;;;;;;;;;;;;5040910;28;20059;-67
2024/02/24 13:33:31;;;;;;;3.80;1.17;;;;;;;;;;5040628;28;19934;-69
2024/02/24 13:35:58;;;;;;;6.22;1.33;;;;;;;;;;5047965;28;20060;-66
2024/02/24 13:38:25;;;;;;;7.38;3.03;;;;;;;;;;5083193;28;20151;-68
2024/02/24 13:40:52;;;;;;;6.40;2.42;;;;;;;;;;5044263;28;20132;-67
2024/02/24 13:43:19;;;;;;;3.20;1.45;;;;;;;;;;5083688;28;20091;-68
2024/02/24 13:45:51;;;;;;;3.90;1.38;;;;;;;;;;5044106;28;20082;-65
2024/02/24 13:48:18;;;;;;;5.53;1.40;;;;;;;;;;5048038;28;20048;-68
2024/02/24 13:50:45;;;;;;;3.63;1.20;;;;;;;;;;5078226;27;20057;-69
2024/02/24 13:53:12;;;;;;;2.22;1.13;;;;;;;;;;5048277;28;20135;-68
2024/02/24 13:55:39;;;;;;;1.92;0.90;;;;;;;;;;5048261;28;20135;-68
2024/02/24 13:58:05;;;;;;;2.45;0.82;;;;;;;;;;5051924;28;20078;-70
2024/02/24 14:00:32;;;;;;;0.73;0.60;;;;;;;;;;5046785;28;20114;-69
2024/02/24 14:03:02;;;;;;;2.05;1.02;;;;;;;;;;5054181;28;20052;-69
2024/02/24 14:05:29;;;;;;;4.38;1.20;;;;;;;;;;5045998;28;20135;-68
2024/02/24 14:07:57;;;;;;;3.25;1.35;;;;;;;;;;5052799;28;20059;-65
2024/02/24 14:10:24;;;;;;;5.65;1.15;;;;;;;;;;5044550;28;20149;-67
2024/02/24 14:12:50;;;;;;;1.77;0.90;;;;;;;;;;5050640;28;20052;-66
2024/02/24 14:15:19;;;;;;;3.47;1.02;;;;;;;;;;5050654;28;20052;-68
2024/02/24 14:17:48;;;;;;;3.10;1.15;;;;;;;;;;5044938;28;20138;-66
2024/02/24 14:20:17;;;;;;;4.93;1.30;;;;;;;;;;5045243;28;20064;-67
2024/02/24 14:22:44;;;;;;;5.20;1.20;;;;;;;;;;5051661;28;20131;-65
2024/02/24 14:25:11;;;;;;;2.03;1.10;;;;;;;;;;5051200;28;20058;-66
2024/02/24 14:27:39;;;;;;;5.75;1.52;;;;;;;;;;5063923;27;20447;-68
2024/02/24 14:30:07;;;;;;;1.10;0.88;;;;;;;;;;5045723;28;20158;-67
2024/02/24 14:32:35;;;;;;;2.70;1.40;;;;;;;;;;5050177;28;20063;-69
2024/02/24 14:35:11;;;;;;;4.70;0.98;;;;;;;;;;5051301;28;20178;-67
2024/02/24 14:37:40;;;;;;;5.88;1.10;;;;;;;;;;5042445;28;20067;-67
2024/02/24 14:40:08;;;;;;;2.17;0.98;;;;;;;;;;5065298;28;20060;-68
2024/02/24 14:42:35;;;;;;;2.58;1.08;;;;;;;;;;5051959;28;20169;-68
2024/02/24 14:45:01;;;;;;;2.20;1.20;;;;;;;;;;5051015;28;20138;-67
2024/02/24 14:47:29;;;;;;;3.95;1.30;;;;;;;;;;5045152;28;20094;-66
2024/02/24 14:49:56;;;;;;;2.70;1.30;;;;;;;;;;5035227;28;20074;-66
2024/02/24 14:52:23;;;;;;;2.92;1.25;;;;;;;;;;5051978;28;20055;-67